Lavelle, Pennsylvania
Current Conditions -  °F | °C
As of 7:58 AM on Thursday 30 Oct 2014 (Local Time) from KMUI Reporting Station
Clear Clear  
Wind Chill: 43°   Ceiling: Unl
Heat Index: 46°   Visibility: 10mi
Dew Point: 45°   Wind: 5mph
Humidity: 97%   Direction: NA
Pressure: 30.03"   Gusts: NA
Location:  40.76°N, 76.38°W
Report Text: KMUI 301158Z AUTO VRB04KT 10SM CLR 08/07 A3003 RMK AO2 SLP174 70008 T00760072 10085 20019 52014 $
Loading
Personal Weather Stations






























Interactive Weather Map
Tropical Storm Tracking
New forecast layout! Learn more

10-Day Weather Forecast

Advertisements
Track Severe Weather on mobile